createdAt,value
2017-10-11T00:00:20.887Z,1004.46
2017-10-11T00:01:20.905Z,1004.43
2017-10-11T00:02:20.923Z,1004.4
2017-10-11T00:03:20.936Z,1004.37
2017-10-11T00:04:20.953Z,1004.37
2017-10-11T00:05:20.972Z,1004.34
2017-10-11T00:06:20.990Z,1004.35
2017-10-11T00:07:21.010Z,1004.29
2017-10-11T00:08:21.024Z,1004.32
2017-10-11T00:09:21.043Z,1004.27
2017-10-11T00:10:21.071Z,1004.25
2017-10-11T00:11:21.079Z,1004.15
2017-10-11T00:12:21.096Z,1004.18
2017-10-11T00:13:21.114Z,1004.14
2017-10-11T00:14:21.132Z,1004.17
2017-10-11T00:15:21.149Z,1004.13
2017-10-11T00:16:21.169Z,1004.17
2017-10-11T00:17:21.186Z,1004.16
2017-10-11T00:18:21.216Z,1004.14
2017-10-11T00:19:21.222Z,1004.12
2017-10-11T00:20:21.240Z,1004.12
2017-10-11T00:21:21.258Z,1004.11
2017-10-11T00:22:21.274Z,1004.1
2017-10-11T00:23:21.292Z,1004.15
2017-10-11T00:24:21.309Z,1004.15
2017-10-11T00:25:21.329Z,1004.18
2017-10-11T00:26:21.346Z,1004.17
2017-10-11T00:27:21.363Z,1004.17
2017-10-11T00:28:21.380Z,1004.16
2017-10-11T00:29:21.398Z,1004.2
2017-10-11T00:30:21.418Z,1004.17
2017-10-11T00:31:21.434Z,1004.22
2017-10-11T00:32:21.452Z,1004.22
2017-10-11T00:33:21.470Z,1004.17
2017-10-11T00:34:21.487Z,1004.22
2017-10-11T00:35:21.506Z,1004.19
2017-10-11T00:36:21.523Z,1004.16
2017-10-11T00:37:21.540Z,1004.21
2017-10-11T00:38:21.560Z,1004.21
2017-10-11T00:39:21.577Z,1004.17
2017-10-11T00:40:21.594Z,1004.17
2017-10-11T00:41:21.612Z,1004.15
2017-10-11T00:42:21.632Z,1004.17
2017-10-11T00:43:21.647Z,1004.27
2017-10-11T00:44:21.666Z,1004.2
2017-10-11T00:45:21.683Z,1004.25
2017-10-11T00:46:21.701Z,1004.24
2017-10-11T00:47:21.720Z,1004.24
2017-10-11T00:48:21.738Z,1004.25
2017-10-11T00:49:21.757Z,1004.24
2017-10-11T00:50:21.772Z,1004.22
2017-10-11T00:51:21.810Z,1004.27
2017-10-11T00:52:21.807Z,1004.26
2017-10-11T00:53:21.825Z,1004.26
2017-10-11T00:54:21.843Z,1004.31
2017-10-11T00:55:21.861Z,1004.3
2017-10-11T00:56:21.879Z,1004.29
2017-10-11T00:57:21.896Z,1004.3
2017-10-11T00:58:21.915Z,1004.32
2017-10-11T00:59:21.933Z,1004.32
2017-10-11T01:00:21.950Z,1004.34
2017-10-11T01:01:21.970Z,1004.3
2017-10-11T01:02:21.986Z,1004.32
2017-10-11T01:03:22.003Z,1004.31
2017-10-11T01:04:22.021Z,1004.27
2017-10-11T01:05:22.040Z,1004.27
2017-10-11T01:06:22.057Z,1004.26
2017-10-11T01:07:22.078Z,1004.28
2017-10-11T01:08:22.092Z,1004.29
2017-10-11T01:09:22.111Z,1004.26
2017-10-11T01:10:22.129Z,1004.19
2017-10-11T01:11:22.147Z,1004.24
2017-10-11T01:12:22.164Z,1004.25
2017-10-11T01:13:22.181Z,1004.2
2017-10-11T01:14:22.201Z,1004.15
2017-10-11T01:15:22.226Z,1004.16
2017-10-11T01:16:22.237Z,1004.13
2017-10-11T01:17:22.254Z,1004.16
2017-10-11T01:18:22.271Z,1004.18
2017-10-11T01:19:22.289Z,1004.13
2017-10-11T01:20:22.307Z,1004.16
2017-10-11T01:21:22.325Z,1004.16
2017-10-11T01:22:22.343Z,1004.13
2017-10-11T01:23:22.360Z,1004.13
2017-10-11T01:24:22.378Z,1004.12
2017-10-11T01:25:22.396Z,1004.13
2017-10-11T01:26:22.413Z,1004.1
2017-10-11T01:27:22.431Z,1004.1
2017-10-11T01:28:22.449Z,1004.07
2017-10-11T01:29:22.468Z,1004.04
2017-10-11T01:30:22.486Z,1004.1
2017-10-11T01:31:22.507Z,1004.08
2017-10-11T01:32:22.521Z,1004.1
2017-10-11T01:33:22.539Z,1004.09
2017-10-11T01:34:22.556Z,1004.06
2017-10-11T01:35:22.575Z,1004.07
2017-10-11T01:36:22.593Z,1004.06
2017-10-11T01:37:22.610Z,1004.05
2017-10-11T01:38:22.628Z,1004.06
2017-10-11T01:39:22.644Z,1004.04
2017-10-11T01:40:22.662Z,1004.06
2017-10-11T01:41:22.681Z,1004.07
2017-10-11T01:42:22.699Z,1004.01
2017-10-11T01:43:22.715Z,1004.01
2017-10-11T01:44:22.737Z,1004.01
2017-10-11T01:45:22.751Z,1004.01
2017-10-11T01:46:22.769Z,1003.97
2017-10-11T01:47:22.788Z,1004
2017-10-11T01:48:22.805Z,1003.96
2017-10-11T01:49:22.824Z,1003.97
2017-10-11T01:50:22.840Z,1003.95
2017-10-11T01:51:22.859Z,1003.91
2017-10-11T01:52:22.876Z,1003.95
2017-10-11T01:53:22.893Z,1003.92
2017-10-11T01:54:22.911Z,1003.97
2017-10-11T01:55:22.930Z,1003.95
2017-10-11T01:56:22.947Z,1003.96
2017-10-11T01:57:22.965Z,1003.92
2017-10-11T01:58:22.983Z,1003.9
2017-10-11T01:59:23.001Z,1003.91
2017-10-11T02:00:23.019Z,1003.88
2017-10-11T02:01:23.038Z,1003.89
2017-10-11T02:02:23.054Z,1003.9
2017-10-11T02:03:23.072Z,1003.89
2017-10-11T02:04:23.089Z,1003.87
2017-10-11T02:05:23.108Z,1003.86
2017-10-11T02:06:23.125Z,1003.83
2017-10-11T02:07:23.144Z,1003.82
2017-10-11T02:08:23.161Z,1003.8
2017-10-11T02:09:23.177Z,1003.79
2017-10-11T02:10:23.197Z,1003.81
2017-10-11T02:11:23.213Z,1003.77
2017-10-11T02:12:23.232Z,1003.76
2017-10-11T02:13:23.249Z,1003.78
2017-10-11T02:14:23.267Z,1003.79
2017-10-11T02:15:23.284Z,1003.78
2017-10-11T02:16:23.301Z,1003.79
2017-10-11T02:17:23.319Z,1003.79
2017-10-11T02:18:23.338Z,1003.78
2017-10-11T02:19:23.373Z,1003.79
2017-10-11T02:20:23.373Z,1003.79
2017-10-11T02:21:23.390Z,1003.77
2017-10-11T02:22:23.410Z,1003.79
2017-10-11T02:23:23.424Z,1003.86
2017-10-11T02:24:23.462Z,1003.82
2017-10-11T02:25:23.462Z,1003.84
2017-10-11T02:26:23.480Z,1003.84
2017-10-11T02:27:23.497Z,1003.87
2017-10-11T02:28:23.515Z,1003.88
2017-10-11T02:29:23.534Z,1003.84
2017-10-11T02:30:23.550Z,1003.83
2017-10-11T02:31:23.568Z,1003.88
2017-10-11T02:32:23.596Z,1003.84
2017-10-11T02:33:23.603Z,1003.83
2017-10-11T02:34:23.620Z,1003.87
2017-10-11T02:35:23.639Z,1003.83
2017-10-11T02:36:23.656Z,1003.83
2017-10-11T02:37:23.675Z,1003.85
2017-10-11T02:38:23.692Z,1003.86
2017-10-11T02:39:23.710Z,1003.81
2017-10-11T02:40:23.727Z,1003.86
2017-10-11T02:41:23.745Z,1003.85
2017-10-11T02:42:23.765Z,1003.82
2017-10-11T02:43:23.788Z,1003.85
2017-10-11T02:44:23.799Z,1003.84
2017-10-11T02:45:23.817Z,1003.86
2017-10-11T02:46:23.834Z,1003.9
2017-10-11T02:47:23.852Z,1003.9
2017-10-11T02:48:23.869Z,1003.84
2017-10-11T02:49:23.889Z,1003.89
2017-10-11T02:50:23.906Z,1003.89
2017-10-11T02:51:23.925Z,1003.89
2017-10-11T02:52:23.949Z,1003.86
2017-10-11T02:53:23.959Z,1003.9
2017-10-11T02:54:23.988Z,1003.87
2017-10-11T02:55:23.995Z,1003.88
2017-10-11T02:56:24.012Z,1003.87
2017-10-11T02:57:24.030Z,1003.89
2017-10-11T02:58:24.057Z,1003.91
2017-10-11T02:59:24.065Z,1003.87
2017-10-11T03:00:24.083Z,1003.88
2017-10-11T03:01:24.100Z,1003.88
2017-10-11T03:02:24.119Z,1003.85
2017-10-11T03:03:24.135Z,1003.85
2017-10-11T03:04:24.154Z,1003.85
2017-10-11T03:05:24.172Z,1003.86
2017-10-11T03:06:24.189Z,1003.83
2017-10-11T03:07:24.220Z,1003.82
2017-10-11T03:08:24.225Z,1003.82
2017-10-11T03:09:24.245Z,1003.85
2017-10-11T03:10:24.261Z,1003.81
2017-10-11T03:11:24.280Z,1003.84
2017-10-11T03:12:24.295Z,1003.81
2017-10-11T03:13:24.314Z,1003.81
2017-10-11T03:14:24.338Z,1003.78
2017-10-11T03:15:24.349Z,1003.8
2017-10-11T03:16:24.366Z,1003.8
2017-10-11T03:17:24.389Z,1003.8
2017-10-11T03:18:24.401Z,1003.86
2017-10-11T03:19:24.420Z,1003.84
2017-10-11T03:20:24.439Z,1003.87
2017-10-11T03:21:24.455Z,1003.88
2017-10-11T03:22:24.473Z,1003.89
2017-10-11T03:23:24.490Z,1003.91
2017-10-11T03:24:24.509Z,1003.93
2017-10-11T03:25:24.527Z,1003.93
2017-10-11T03:26:24.545Z,1003.91
2017-10-11T03:27:24.562Z,1003.89
2017-10-11T03:28:24.579Z,1003.89
2017-10-11T03:29:24.612Z,1003.91
2017-10-11T03:30:24.617Z,1003.93
2017-10-11T03:31:24.635Z,1003.94
2017-10-11T03:32:24.651Z,1003.86
2017-10-11T03:33:24.679Z,1003.87
2017-10-11T03:34:24.687Z,1003.89
2017-10-11T03:35:24.704Z,1003.89
2017-10-11T03:36:24.722Z,1003.89
2017-10-11T03:37:24.740Z,1003.85
2017-10-11T03:38:24.760Z,1003.87
2017-10-11T03:39:24.776Z,1003.91
2017-10-11T03:40:24.795Z,1003.89
2017-10-11T03:41:24.812Z,1003.91
2017-10-11T03:42:24.830Z,1003.91
2017-10-11T03:43:24.847Z,1003.9
2017-10-11T03:44:24.865Z,1003.94
2017-10-11T03:45:24.882Z,1003.93
2017-10-11T03:46:24.899Z,1003.93
2017-10-11T03:47:24.918Z,1003.95
2017-10-11T03:48:24.936Z,1003.95
2017-10-11T03:49:24.954Z,1003.93
2017-10-11T03:50:24.971Z,1003.96
2017-10-11T03:51:24.989Z,1003.98
2017-10-11T03:52:25.008Z,1003.93
2017-10-11T03:53:25.024Z,1003.95
2017-10-11T03:54:25.041Z,1003.96
2017-10-11T03:55:25.060Z,1003.93
2017-10-11T03:56:25.079Z,1003.9
2017-10-11T03:57:25.102Z,1003.93
2017-10-11T03:58:25.112Z,1003.94
2017-10-11T03:59:25.131Z,1003.9
2017-10-11T04:00:25.149Z,1003.95
2017-10-11T04:01:25.166Z,1003.98
2017-10-11T04:02:25.184Z,1003.99
2017-10-11T04:03:25.203Z,1003.97
2017-10-11T04:04:25.220Z,1003.98
2017-10-11T04:05:25.238Z,1003.98
2017-10-11T04:06:25.256Z,1003.97
2017-10-11T04:07:25.274Z,1003.99
2017-10-11T04:08:25.293Z,1004.03
2017-10-11T04:09:25.307Z,1004.03
2017-10-11T04:10:25.327Z,1004.02
2017-10-11T04:11:25.344Z,1004.01
2017-10-11T04:12:25.366Z,1004.01
2017-10-11T04:13:25.380Z,1003.98
2017-10-11T04:14:25.401Z,1003.99
2017-10-11T04:15:25.417Z,1004.03
2017-10-11T04:16:25.432Z,1004.03
2017-10-11T04:17:25.451Z,1004
2017-10-11T04:18:25.470Z,1004.02
2017-10-11T04:19:25.487Z,1004.02
2017-10-11T04:20:25.506Z,1003.99
2017-10-11T04:21:25.523Z,1004.02
2017-10-11T04:22:25.541Z,1004.03
2017-10-11T04:23:25.559Z,1004.04
2017-10-11T04:24:25.576Z,1004.01
2017-10-11T04:25:25.595Z,1004.05
2017-10-11T04:26:25.611Z,1004.06
2017-10-11T04:27:25.630Z,1004.04
2017-10-11T04:28:25.648Z,1004.04
2017-10-11T04:29:25.667Z,1004.01
2017-10-11T04:30:25.689Z,1004.06
2017-10-11T04:31:25.702Z,1004.04
2017-10-11T04:32:25.719Z,1004.02
2017-10-11T04:33:25.738Z,1004.06
2017-10-11T04:34:25.758Z,1004.06
2017-10-11T04:35:25.785Z,1004.09
2017-10-11T04:36:25.791Z,1004.08
2017-10-11T04:37:25.810Z,1004.04
2017-10-11T04:38:25.827Z,1004.06
2017-10-11T04:39:25.844Z,1004.04
2017-10-11T04:40:25.862Z,1004.05
2017-10-11T04:41:25.880Z,1004.02
2017-10-11T04:42:25.899Z,1004.06
2017-10-11T04:43:25.916Z,1004.01
2017-10-11T04:44:25.936Z,1003.97
2017-10-11T04:45:25.951Z,1003.95
2017-10-11T04:46:25.969Z,1003.93
2017-10-11T04:47:25.988Z,1003.92
2017-10-11T04:48:26.006Z,1003.89
2017-10-11T04:49:26.023Z,1003.89
2017-10-11T04:50:26.040Z,1003.84
2017-10-11T04:51:26.064Z,1003.86
2017-10-11T04:52:26.077Z,1003.82
2017-10-11T04:53:26.094Z,1003.84
2017-10-11T04:54:26.112Z,1003.85
2017-10-11T04:55:26.130Z,1003.87
2017-10-11T04:56:26.147Z,1003.9
2017-10-11T04:57:26.166Z,1003.95
2017-10-11T04:58:26.182Z,1003.96
2017-10-11T04:59:26.203Z,1003.96
2017-10-11T05:00:26.219Z,1003.97
2017-10-11T05:01:26.236Z,1003.98
2017-10-11T05:02:26.257Z,1004.04
2017-10-11T05:03:26.272Z,1004.06
2017-10-11T05:04:26.290Z,1004.05
2017-10-11T05:05:26.309Z,1004.07
2017-10-11T05:06:26.327Z,1004.1
2017-10-11T05:07:26.345Z,1004.11
2017-10-11T05:08:26.361Z,1004.11
2017-10-11T05:09:26.380Z,1004.09
2017-10-11T05:10:26.398Z,1004.1
2017-10-11T05:11:26.416Z,1004.09
2017-10-11T05:12:26.434Z,1004.07
2017-10-11T05:13:26.454Z,1004.09
2017-10-11T05:14:26.469Z,1004.1
2017-10-11T05:15:26.486Z,1004.09
2017-10-11T05:16:26.505Z,1004.06
2017-10-11T05:17:26.523Z,1004.08
2017-10-11T05:18:26.542Z,1004.08
2017-10-11T05:19:26.558Z,1004.09
2017-10-11T05:20:26.575Z,1004.09
2017-10-11T05:21:26.596Z,1004.12
2017-10-11T05:22:26.614Z,1004.12
2017-10-11T05:23:26.629Z,1004.09
2017-10-11T05:24:26.655Z,1004.09
2017-10-11T05:25:26.669Z,1004.13
2017-10-11T05:26:26.684Z,1004.11
2017-10-11T05:27:26.701Z,1004.1
2017-10-11T05:28:26.721Z,1004.11
2017-10-11T05:29:26.737Z,1004.1
2017-10-11T05:30:26.755Z,1004.08
2017-10-11T05:31:26.772Z,1004.11
2017-10-11T05:32:26.793Z,1004.09
2017-10-11T05:33:26.810Z,1004.06
2017-10-11T05:34:26.834Z,1004.15
2017-10-11T05:35:26.844Z,1004.15
2017-10-11T05:36:26.861Z,1004.11
2017-10-11T05:37:26.879Z,1004.1
2017-10-11T05:38:26.898Z,1004.12
2017-10-11T05:39:26.916Z,1004.13
2017-10-11T05:40:26.932Z,1004.15
2017-10-11T05:41:26.951Z,1004.08
2017-10-11T05:42:26.968Z,1004.14
2017-10-11T05:43:26.998Z,1004.15
2017-10-11T05:44:27.007Z,1004.14
2017-10-11T05:45:27.022Z,1004.19
2017-10-11T05:46:27.040Z,1004.19
2017-10-11T05:47:27.059Z,1004.19
2017-10-11T05:48:27.076Z,1004.19
2017-10-11T05:49:27.092Z,1004.17
2017-10-11T05:50:27.111Z,1004.17
2017-10-11T05:51:27.128Z,1004.18
2017-10-11T05:52:27.155Z,1004.18
2017-10-11T05:53:27.164Z,1004.17
2017-10-11T05:54:27.185Z,1004.21
2017-10-11T05:55:27.201Z,1004.2
2017-10-11T05:56:27.218Z,1004.23
2017-10-11T05:57:27.241Z,1004.27
2017-10-11T05:58:27.256Z,1004.29
2017-10-11T05:59:27.272Z,1004.3
2017-10-11T06:00:27.291Z,1004.31
2017-10-11T06:01:27.308Z,1004.34
2017-10-11T06:02:27.326Z,1004.33
2017-10-11T06:03:27.342Z,1004.38
2017-10-11T06:04:27.362Z,1004.32
2017-10-11T06:05:27.378Z,1004.31
2017-10-11T06:06:27.397Z,1004.35
2017-10-11T06:07:27.415Z,1004.33
2017-10-11T06:08:27.433Z,1004.34
2017-10-11T06:09:27.449Z,1004.38
2017-10-11T06:10:27.468Z,1004.37
2017-10-11T06:11:27.486Z,1004.36
2017-10-11T06:12:27.506Z,1004.36
2017-10-11T06:13:27.521Z,1004.37
2017-10-11T06:14:27.540Z,1004.36
2017-10-11T06:15:27.557Z,1004.34
2017-10-11T06:16:27.574Z,1004.4
2017-10-11T06:17:27.592Z,1004.42
2017-10-11T06:18:27.611Z,1004.47
2017-10-11T06:19:27.632Z,1004.44
2017-10-11T06:20:27.646Z,1004.48
2017-10-11T06:21:27.664Z,1004.46
2017-10-11T06:22:27.682Z,1004.46
2017-10-11T06:23:27.700Z,1004.47
2017-10-11T06:24:27.717Z,1004.47
2017-10-11T06:25:27.735Z,1004.5
2017-10-11T06:26:27.754Z,1004.47
2017-10-11T06:27:27.789Z,1004.51
2017-10-11T06:28:27.788Z,1004.5
2017-10-11T06:29:27.808Z,1004.47
2017-10-11T06:30:27.824Z,1004.49
2017-10-11T06:31:27.844Z,1004.49
2017-10-11T06:32:27.860Z,1004.48
2017-10-11T06:33:27.879Z,1004.45
2017-10-11T06:34:27.904Z,1004.46
2017-10-11T06:35:27.914Z,1004.48
2017-10-11T06:36:27.931Z,1004.51
2017-10-11T06:37:27.976Z,1004.48
2017-10-11T06:38:27.967Z,1004.49
2017-10-11T06:39:27.985Z,1004.49
2017-10-11T06:40:28.002Z,1004.46
2017-10-11T06:41:28.022Z,1004.53
2017-10-11T06:42:28.039Z,1004.52
2017-10-11T06:43:28.057Z,1004.49
2017-10-11T06:44:28.075Z,1004.47
2017-10-11T06:45:28.092Z,1004.49
2017-10-11T06:46:28.109Z,1004.52
2017-10-11T06:47:28.129Z,1004.48
2017-10-11T06:48:28.148Z,1004.5
2017-10-11T06:49:28.164Z,1004.5
2017-10-11T06:50:28.182Z,1004.53
2017-10-11T06:51:28.201Z,1004.57
2017-10-11T06:52:28.219Z,1004.55
2017-10-11T06:53:28.235Z,1004.54
2017-10-11T06:54:28.257Z,1004.58
2017-10-11T06:55:28.273Z,1004.54
2017-10-11T06:56:28.291Z,1004.59
2017-10-11T06:57:28.306Z,1004.62
2017-10-11T06:58:28.327Z,1004.66
2017-10-11T06:59:28.344Z,1004.6
2017-10-11T07:00:28.362Z,1004.62
2017-10-11T07:01:28.379Z,1004.62
2017-10-11T07:02:28.397Z,1004.61
2017-10-11T07:03:28.414Z,1004.64
2017-10-11T07:04:28.432Z,1004.65
2017-10-11T07:05:28.450Z,1004.64
2017-10-11T07:06:28.469Z,1004.66
2017-10-11T07:07:28.492Z,1004.65
2017-10-11T07:08:28.503Z,1004.66
2017-10-11T07:09:28.522Z,1004.61
2017-10-11T07:10:28.541Z,1004.63
2017-10-11T07:11:28.558Z,1004.67
2017-10-11T07:12:28.577Z,1004.6
2017-10-11T07:13:28.596Z,1004.65
2017-10-11T07:14:28.613Z,1004.65
2017-10-11T07:15:28.630Z,1004.68
2017-10-11T07:16:28.649Z,1004.66
2017-10-11T07:17:28.668Z,1004.71
2017-10-11T07:18:28.685Z,1004.71
2017-10-11T07:19:28.703Z,1004.73
2017-10-11T07:20:28.720Z,1004.75
2017-10-11T07:21:28.739Z,1004.75
2017-10-11T07:22:28.756Z,1004.74
2017-10-11T07:23:28.782Z,1004.74
2017-10-11T07:24:28.793Z,1004.74
2017-10-11T07:25:28.811Z,1004.77
2017-10-11T07:26:28.829Z,1004.76
2017-10-11T07:27:28.847Z,1004.82
2017-10-11T07:28:28.865Z,1004.74
2017-10-11T07:29:28.885Z,1004.76
2017-10-11T07:30:28.900Z,1004.77
2017-10-11T07:31:28.925Z,1004.77
2017-10-11T07:32:28.938Z,1004.83
2017-10-11T07:33:28.956Z,1004.8
2017-10-11T07:34:28.973Z,1004.77
2017-10-11T07:35:28.993Z,1004.71
2017-10-11T07:36:29.010Z,1004.76
2017-10-11T07:37:29.036Z,1004.79
2017-10-11T07:38:29.048Z,1004.76
2017-10-11T07:39:29.065Z,1004.72
2017-10-11T07:40:29.083Z,1004.8
2017-10-11T07:41:29.100Z,1004.73
2017-10-11T07:42:29.118Z,1004.7
2017-10-11T07:43:29.138Z,1004.67
2017-10-11T07:44:29.154Z,1004.65
2017-10-11T07:45:29.174Z,1004.65
2017-10-11T07:46:29.192Z,1004.6
2017-10-11T07:47:29.209Z,1004.62
2017-10-11T07:48:29.227Z,1004.6
2017-10-11T07:49:29.247Z,1004.67
2017-10-11T07:50:29.265Z,1004.62
2017-10-11T07:51:29.283Z,1004.63
2017-10-11T07:52:29.317Z,1004.6
2017-10-11T07:53:29.323Z,1004.68
2017-10-11T07:54:29.341Z,1004.67
2017-10-11T07:55:29.357Z,1004.67
2017-10-11T07:56:29.373Z,1004.67
2017-10-11T07:57:29.392Z,1004.69
2017-10-11T07:58:29.409Z,1004.71
2017-10-11T07:59:29.432Z,1004.72
2017-10-11T08:00:29.446Z,1004.75
2017-10-11T08:01:29.466Z,1004.77
2017-10-11T08:02:29.481Z,1004.72
2017-10-11T08:03:29.500Z,1004.71
2017-10-11T08:04:29.521Z,1004.75
2017-10-11T08:05:29.537Z,1004.71
2017-10-11T08:06:29.556Z,1004.7
2017-10-11T08:07:29.572Z,1004.77
2017-10-11T08:08:29.593Z,1004.74
2017-10-11T08:09:29.609Z,1004.67
2017-10-11T08:10:29.627Z,1004.73
2017-10-11T08:11:29.652Z,1004.71
2017-10-11T08:12:29.671Z,1004.67
2017-10-11T08:13:29.682Z,1004.7
2017-10-11T08:14:29.700Z,1004.67
2017-10-11T08:15:29.720Z,1004.68
2017-10-11T08:16:29.748Z,1004.57
2017-10-11T08:17:29.757Z,1004.53
2017-10-11T08:18:29.774Z,1004.59
2017-10-11T08:19:29.795Z,1004.59
2017-10-11T08:20:29.812Z,1004.58
2017-10-11T08:21:29.830Z,1004.56
2017-10-11T08:22:29.847Z,1004.57
2017-10-11T08:23:29.867Z,1004.58
2017-10-11T08:24:29.884Z,1004.57
2017-10-11T08:25:29.903Z,1004.56
2017-10-11T08:26:29.921Z,1004.58
2017-10-11T08:27:29.940Z,1004.54
2017-10-11T08:28:29.958Z,1004.57
2017-10-11T08:29:29.976Z,1004.58
2017-10-11T08:30:30.019Z,1004.59
2017-10-11T08:31:30.014Z,1004.57
2017-10-11T08:32:30.032Z,1004.6
2017-10-11T08:33:30.049Z,1004.63
2017-10-11T08:34:30.072Z,1004.56
2017-10-11T08:35:30.086Z,1004.67
2017-10-11T08:36:30.104Z,1004.67
2017-10-11T08:37:30.124Z,1004.67
2017-10-11T08:38:30.143Z,1004.64
2017-10-11T08:39:30.160Z,1004.67
2017-10-11T08:40:30.179Z,1004.68
2017-10-11T08:41:30.199Z,1004.66
2017-10-11T08:42:30.220Z,1004.71
2017-10-11T08:43:30.234Z,1004.61
2017-10-11T08:44:30.254Z,1004.67
2017-10-11T08:45:30.272Z,1004.68
2017-10-11T08:46:30.290Z,1004.69
2017-10-11T08:47:30.309Z,1004.69
2017-10-11T08:48:30.328Z,1004.67
2017-10-11T08:49:30.347Z,1004.72
2017-10-11T08:50:30.364Z,1004.78
2017-10-11T08:51:30.383Z,1004.78
2017-10-11T08:52:30.404Z,1004.81
2017-10-11T08:53:30.421Z,1004.76
2017-10-11T08:54:30.439Z,1004.78
2017-10-11T08:55:30.459Z,1004.78
2017-10-11T08:56:30.478Z,1004.75
2017-10-11T08:57:30.495Z,1004.77
2017-10-11T08:58:30.514Z,1004.8
2017-10-11T08:59:30.534Z,1004.77
2017-10-11T09:00:30.553Z,1004.79
2017-10-11T09:01:30.570Z,1004.76
2017-10-11T09:02:30.590Z,1004.79
2017-10-11T09:03:30.610Z,1004.8
2017-10-11T09:04:30.628Z,1004.81
2017-10-11T09:05:30.647Z,1004.78
2017-10-11T09:06:30.666Z,1004.83
2017-10-11T09:07:30.686Z,1004.79
2017-10-11T09:08:30.704Z,1004.83
2017-10-11T09:09:30.723Z,1004.76
2017-10-11T09:10:30.742Z,1004.81
2017-10-11T09:11:30.762Z,1004.83
2017-10-11T09:12:30.785Z,1004.83
2017-10-11T09:13:30.799Z,1004.83
2017-10-11T09:14:30.818Z,1004.89
2017-10-11T09:15:30.836Z,1004.91
2017-10-11T09:16:30.866Z,1004.93
2017-10-11T09:17:30.876Z,1004.93
2017-10-11T09:18:30.896Z,1004.94
2017-10-11T09:19:30.916Z,1004.92
2017-10-11T09:20:30.932Z,1004.88
2017-10-11T09:21:30.952Z,1004.89
2017-10-11T09:22:30.971Z,1004.88
2017-10-11T09:23:30.989Z,1004.85
2017-10-11T09:24:31.009Z,1004.91
2017-10-11T09:25:31.031Z,1004.85
2017-10-11T09:26:31.048Z,1004.89
2017-10-11T09:27:31.067Z,1004.93
2017-10-11T09:28:31.087Z,1004.89
2017-10-11T09:29:31.106Z,1004.9
2017-10-11T09:30:31.126Z,1004.86
2017-10-11T09:31:31.150Z,1004.94
2017-10-11T09:32:31.164Z,1004.91
2017-10-11T09:33:31.186Z,1004.89
2017-10-11T09:34:31.201Z,1004.89
2017-10-11T09:35:31.221Z,1004.86
2017-10-11T09:36:31.241Z,1004.91
2017-10-11T09:37:31.261Z,1004.92
2017-10-11T09:38:31.283Z,1004.93
2017-10-11T09:39:31.300Z,1004.99
2017-10-11T09:40:31.320Z,1004.95
2017-10-11T09:41:31.341Z,1004.93
2017-10-11T09:42:31.358Z,1004.88
2017-10-11T09:43:31.378Z,1004.89
2017-10-11T09:44:31.398Z,1004.79
2017-10-11T09:45:31.415Z,1004.82
2017-10-11T09:46:31.436Z,1004.86
2017-10-11T09:47:31.456Z,1004.85
2017-10-11T09:48:31.475Z,1004.87
2017-10-11T09:49:31.494Z,1004.82
2017-10-11T09:50:31.514Z,1004.85
2017-10-11T09:51:31.535Z,1004.87
2017-10-11T09:52:31.553Z,1004.95
2017-10-11T09:53:31.573Z,1004.9
2017-10-11T09:54:31.592Z,1004.93
2017-10-11T09:55:31.613Z,1005.09
2017-10-11T09:56:31.631Z,1005.01
2017-10-11T09:57:31.650Z,1004.99
2017-10-11T09:58:31.671Z,1004.93
2017-10-11T09:59:31.689Z,1005
2017-10-11T10:00:31.710Z,1004.93
2017-10-11T10:01:31.730Z,1004.9
2017-10-11T10:02:31.750Z,1004.92
2017-10-11T10:03:31.768Z,1004.85
2017-10-11T10:04:31.789Z,1004.88
2017-10-11T10:05:31.808Z,1004.95
2017-10-11T10:06:31.827Z,1004.91
2017-10-11T10:07:31.847Z,1004.92
2017-10-11T10:08:31.868Z,1004.93
2017-10-11T10:09:31.893Z,1004.96
2017-10-11T10:10:31.908Z,1004.97
2017-10-11T10:11:31.927Z,1004.94
2017-10-11T10:12:31.948Z,1004.89
2017-10-11T10:13:31.966Z,1004.9
2017-10-11T10:14:31.989Z,1004.91
2017-10-11T10:15:32.014Z,1004.94
2017-10-11T10:16:32.025Z,1004.9
2017-10-11T10:17:32.048Z,1004.82
2017-10-11T10:18:32.066Z,1004.89
2017-10-11T10:19:32.085Z,1004.94
2017-10-11T10:20:32.109Z,1004.92
2017-10-11T10:21:32.126Z,1004.96
2017-10-11T10:22:32.146Z,1004.97
2017-10-11T10:23:32.166Z,1004.93
2017-10-11T10:24:32.187Z,1005.02
2017-10-11T10:25:32.207Z,1005.01
2017-10-11T10:26:32.225Z,1005.01
2017-10-11T10:27:32.249Z,1005.02
2017-10-11T10:28:32.265Z,1005.04
2017-10-11T10:29:32.285Z,1005.03
2017-10-11T10:30:32.307Z,1005.01
2017-10-11T10:31:32.334Z,1005.04
2017-10-11T10:32:32.346Z,1005.03
2017-10-11T10:33:32.366Z,1005.02
2017-10-11T10:34:32.387Z,1005.07
2017-10-11T10:35:32.406Z,1005.05
2017-10-11T10:36:32.425Z,1005.07
2017-10-11T10:37:32.447Z,1005.01
2017-10-11T10:38:32.467Z,1005.06
2017-10-11T10:39:32.494Z,1005.04
2017-10-11T10:40:32.509Z,1005.06
2017-10-11T10:41:32.529Z,1005
2017-10-11T10:42:32.549Z,1005.05
2017-10-11T10:43:32.569Z,1005.1
2017-10-11T10:44:32.589Z,1004.97
2017-10-11T10:45:32.610Z,1005.05
2017-10-11T10:46:32.630Z,1004.94
2017-10-11T10:47:32.668Z,1004.9
2017-10-11T10:48:32.675Z,1005
2017-10-11T10:49:32.692Z,1004.97
2017-10-11T10:50:32.712Z,1005.03
2017-10-11T10:51:32.732Z,1005
2017-10-11T10:52:32.752Z,1004.94
2017-10-11T10:53:32.772Z,1004.9
2017-10-11T10:54:32.792Z,1004.93
2017-10-11T10:55:32.814Z,1004.96
2017-10-11T10:56:32.834Z,1004.88
2017-10-11T10:57:32.855Z,1004.9
2017-10-11T10:58:32.878Z,1004.89
2017-10-11T10:59:32.903Z,1004.94
2017-10-11T11:00:32.919Z,1004.9
2017-10-11T11:01:32.942Z,1004.96
2017-10-11T11:02:32.956Z,1004.86
2017-10-11T11:03:32.977Z,1004.97
2017-10-11T11:04:32.998Z,1004.95
2017-10-11T11:05:33.016Z,1004.99
2017-10-11T11:06:33.036Z,1005.02
2017-10-11T11:07:33.059Z,1005.02
2017-10-11T11:08:33.082Z,1005
2017-10-11T11:09:33.099Z,1005.01
2017-10-11T11:10:33.119Z,1005.05
2017-10-11T11:11:33.140Z,1004.96
2017-10-11T11:12:33.159Z,1005.03
2017-10-11T11:13:33.184Z,1005.03
2017-10-11T11:14:33.202Z,1004.99
2017-10-11T11:15:33.222Z,1005
2017-10-11T11:16:33.244Z,1004.97
2017-10-11T11:17:33.264Z,1005.03
2017-10-11T11:18:33.284Z,1005
2017-10-11T11:19:33.303Z,1005.07
2017-10-11T11:20:33.324Z,1005.06
2017-10-11T11:21:33.345Z,1005.09
2017-10-11T11:22:33.367Z,1005.03
2017-10-11T11:23:33.386Z,1005.03
2017-10-11T11:24:33.407Z,1004.99
2017-10-11T11:25:33.432Z,1004.98
2017-10-11T11:26:33.448Z,1004.99
2017-10-11T11:27:33.470Z,1004.9
2017-10-11T11:28:33.490Z,1004.98
2017-10-11T11:29:33.510Z,1004.96
2017-10-11T11:30:33.532Z,1004.95
2017-10-11T11:31:33.551Z,1004.94
2017-10-11T11:32:33.572Z,1004.91
2017-10-11T11:33:33.593Z,1004.86
2017-10-11T11:34:33.613Z,1004.97
2017-10-11T11:35:33.633Z,1004.96
2017-10-11T11:36:33.654Z,1004.88
2017-10-11T11:37:33.676Z,1004.89
2017-10-11T11:38:33.695Z,1004.94
2017-10-11T11:39:33.715Z,1004.92
2017-10-11T11:40:33.744Z,1004.87
2017-10-11T11:41:33.759Z,1004.86
2017-10-11T11:42:33.779Z,1004.84
2017-10-11T11:43:33.800Z,1004.82
2017-10-11T11:44:33.820Z,1004.83
2017-10-11T11:45:33.840Z,1004.84
2017-10-11T11:46:33.861Z,1004.83
2017-10-11T11:47:33.882Z,1004.82
2017-10-11T11:48:33.905Z,1004.83
2017-10-11T11:49:33.923Z,1004.84
2017-10-11T11:50:33.944Z,1004.87
2017-10-11T11:51:33.967Z,1004.79
2017-10-11T11:52:33.987Z,1004.81
2017-10-11T11:53:34.006Z,1004.78
2017-10-11T11:54:34.029Z,1004.69
2017-10-11T11:55:34.049Z,1004.8
2017-10-11T11:56:34.068Z,1004.81
2017-10-11T11:57:34.091Z,1004.79
2017-10-11T11:58:34.111Z,1004.78
2017-10-11T11:59:34.131Z,1004.8
2017-10-11T12:00:34.152Z,1004.79
2017-10-11T12:01:34.173Z,1004.8
2017-10-11T12:02:34.195Z,1004.74
2017-10-11T12:03:34.215Z,1004.81
2017-10-11T12:04:34.235Z,1004.8
2017-10-11T12:05:34.258Z,1004.83
2017-10-11T12:06:34.278Z,1004.82
2017-10-11T12:07:34.299Z,1004.75
2017-10-11T12:08:34.319Z,1004.83